sensor_id;sensor_type;location;lat;lon;timestamp;temperature;humidity
33865;DHT22;20159;51.072;13.526;2022-11-06T00:01:31;5.70;96.20
33865;DHT22;20159;51.072;13.526;2022-11-06T00:03:57;5.80;96.20
33865;DHT22;20159;51.072;13.526;2022-11-06T00:06:23;5.90;96.10
33865;DHT22;20159;51.072;13.526;2022-11-06T00:09:10;6.00;95.90
33865;DHT22;20159;51.072;13.526;2022-11-06T00:11:38;6.10;95.70
33865;DHT22;20159;51.072;13.526;2022-11-06T00:14:03;6.20;95.50
33865;DHT22;20159;51.072;13.526;2022-11-06T00:16:29;6.20;95.30
33865;DHT22;20159;51.072;13.526;2022-11-06T00:18:54;6.30;95.10
33865;DHT22;20159;51.072;13.526;2022-11-06T00:21:25;6.30;94.90
33865;DHT22;20159;51.072;13.526;2022-11-06T00:23:52;6.40;94.80
33865;DHT22;20159;51.072;13.526;2022-11-06T00:26:26;6.40;94.80
33865;DHT22;20159;51.072;13.526;2022-11-06T00:28:52;6.40;94.80
33865;DHT22;20159;51.072;13.526;2022-11-06T00:31:21;6.40;94.80
33865;DHT22;20159;51.072;13.526;2022-11-06T00:33:47;6.50;94.70
33865;DHT22;20159;51.072;13.526;2022-11-06T00:36:15;6.50;94.60
33865;DHT22;20159;51.072;13.526;2022-11-06T00:38:41;6.50;94.60
33865;DHT22;20159;51.072;13.526;2022-11-06T00:41:09;6.60;94.70
33865;DHT22;20159;51.072;13.526;2022-11-06T00:43:35;6.60;94.80
33865;DHT22;20159;51.072;13.526;2022-11-06T00:46:03;6.60;94.80
33865;DHT22;20159;51.072;13.526;2022-11-06T00:48:29;6.70;94.90
33865;DHT22;20159;51.072;13.526;2022-11-06T00:50:54;6.70;95.00
33865;DHT22;20159;51.072;13.526;2022-11-06T00:53:25;8.90;95.50
33865;DHT22;20159;51.072;13.526;2022-11-06T00:55:51;6.80;94.90
33865;DHT22;20159;51.072;13.526;2022-11-06T00:58:16;6.80;94.80
33865;DHT22;20159;51.072;13.526;2022-11-06T01:00:42;6.80;94.60
33865;DHT22;20159;51.072;13.526;2022-11-06T01:03:07;6.80;94.60
33865;DHT22;20159;51.072;13.526;2022-11-06T01:05:33;9.90;95.30
33865;DHT22;20159;51.072;13.526;2022-11-06T01:07:58;4.40;94.00
33865;DHT22;20159;51.072;13.526;2022-11-06T01:10:24;7.00;94.60
33865;DHT22;20159;51.072;13.526;2022-11-06T01:12:49;7.00;94.60
33865;DHT22;20159;51.072;13.526;2022-11-06T01:15:15;9.80;95.30
33865;DHT22;20159;51.072;13.526;2022-11-06T01:17:40;7.00;94.50
33865;DHT22;20159;51.072;13.526;2022-11-06T01:20:06;7.00;94.50
33865;DHT22;20159;51.072;13.526;2022-11-06T01:22:32;7.10;94.40
33865;DHT22;20159;51.072;13.526;2022-11-06T01:24:58;7.10;94.40
33865;DHT22;20159;51.072;13.526;2022-11-06T01:27:23;9.00;94.80
33865;DHT22;20159;51.072;13.526;2022-11-06T01:29:49;7.20;94.30
33865;DHT22;20159;51.072;13.526;2022-11-06T01:32:14;7.20;94.20
33865;DHT22;20159;51.072;13.526;2022-11-06T01:34:40;7.20;94.10
33865;DHT22;20159;51.072;13.526;2022-11-06T01:37:06;7.20;94.00
33865;DHT22;20159;51.072;13.526;2022-11-06T01:39:31;7.20;93.90
33865;DHT22;20159;51.072;13.526;2022-11-06T01:41:57;7.20;93.90
33865;DHT22;20159;51.072;13.526;2022-11-06T01:46:58;7.20;94.00
33865;DHT22;20159;51.072;13.526;2022-11-06T01:49:24;7.20;93.80
33865;DHT22;20159;51.072;13.526;2022-11-06T01:51:54;7.90;94.00
33865;DHT22;20159;51.072;13.526;2022-11-06T01:54:21;7.20;93.80
33865;DHT22;20159;51.072;13.526;2022-11-06T01:56:49;7.20;93.80
33865;DHT22;20159;51.072;13.526;2022-11-06T01:59:17;7.20;93.90
33865;DHT22;20159;51.072;13.526;2022-11-06T02:01:44;7.20;93.90
33865;DHT22;20159;51.072;13.526;2022-11-06T02:04:19;7.30;93.90
33865;DHT22;20159;51.072;13.526;2022-11-06T02:06:46;7.20;93.80
33865;DHT22;20159;51.072;13.526;2022-11-06T02:09:12;9.30;94.20
33865;DHT22;20159;51.072;13.526;2022-11-06T02:11:40;7.20;93.50
33865;DHT22;20159;51.072;13.526;2022-11-06T02:14:44;7.20;93.40
33865;DHT22;20159;51.072;13.526;2022-11-06T02:17:41;7.20;93.50
33865;DHT22;20159;51.072;13.526;2022-11-06T02:20:39;7.20;93.40
33865;DHT22;20159;51.072;13.526;2022-11-06T02:27:01;7.10;93.20
33865;DHT22;20159;51.072;13.526;2022-11-06T02:29:08;7.00;93.20
33865;DHT22;20159;51.072;13.526;2022-11-06T02:31:35;7.00;93.30
33865;DHT22;20159;51.072;13.526;2022-11-06T02:34:09;7.00;93.30
33865;DHT22;20159;51.072;13.526;2022-11-06T02:36:41;7.00;93.30
33865;DHT22;20159;51.072;13.526;2022-11-06T02:39:11;6.90;93.20
33865;DHT22;20159;51.072;13.526;2022-11-06T02:41:42;6.90;93.30
33865;DHT22;20159;51.072;13.526;2022-11-06T02:44:14;6.90;93.40
33865;DHT22;20159;51.072;13.526;2022-11-06T02:47:03;6.90;93.50
33865;DHT22;20159;51.072;13.526;2022-11-06T02:49:41;6.90;93.80
33865;DHT22;20159;51.072;13.526;2022-11-06T02:52:15;6.90;93.80
33865;DHT22;20159;51.072;13.526;2022-11-06T02:54:46;6.80;93.80
33865;DHT22;20159;51.072;13.526;2022-11-06T02:57:13;6.90;93.80
33865;DHT22;20159;51.072;13.526;2022-11-06T02:59:50;6.90;93.80
33865;DHT22;20159;51.072;13.526;2022-11-06T03:02:22;6.80;93.80
33865;DHT22;20159;51.072;13.526;2022-11-06T03:04:57;6.80;93.70
33865;DHT22;20159;51.072;13.526;2022-11-06T03:07:42;6.80;93.80
33865;DHT22;20159;51.072;13.526;2022-11-06T03:10:09;6.90;93.90
33865;DHT22;20159;51.072;13.526;2022-11-06T03:12:44;6.90;93.80
33865;DHT22;20159;51.072;13.526;2022-11-06T03:15:22;6.90;93.90
33865;DHT22;20159;51.072;13.526;2022-11-06T03:18:01;6.90;93.90
33865;DHT22;20159;51.072;13.526;2022-11-06T03:20:34;9.10;94.60
33865;DHT22;20159;51.072;13.526;2022-11-06T03:23:17;6.90;94.00
33865;DHT22;20159;51.072;13.526;2022-11-06T03:26:06;6.90;94.00
33865;DHT22;20159;51.072;13.526;2022-11-06T03:29:04;6.90;93.90
33865;DHT22;20159;51.072;13.526;2022-11-06T03:31:43;7.00;93.80
33865;DHT22;20159;51.072;13.526;2022-11-06T03:34:14;8.70;94.10
33865;DHT22;20159;51.072;13.526;2022-11-06T03:36:43;7.00;93.60
33865;DHT22;20159;51.072;13.526;2022-11-06T03:39:16;6.90;93.60
33865;DHT22;20159;51.072;13.526;2022-11-06T03:42:00;7.00;93.60
33865;DHT22;20159;51.072;13.526;2022-11-06T03:44:27;7.00;93.60
33865;DHT22;20159;51.072;13.526;2022-11-06T03:47:08;7.00;93.60
33865;DHT22;20159;51.072;13.526;2022-11-06T03:49:40;6.90;93.50
33865;DHT22;20159;51.072;13.526;2022-11-06T03:55:12;6.90;93.50
33865;DHT22;20159;51.072;13.526;2022-11-06T03:57:52;6.90;93.40
33865;DHT22;20159;51.072;13.526;2022-11-06T04:00:19;6.90;93.30
33865;DHT22;20159;51.072;13.526;2022-11-06T04:02:52;6.90;93.30
33865;DHT22;20159;51.072;13.526;2022-11-06T04:05:41;6.80;93.20
33865;DHT22;20159;51.072;13.526;2022-11-06T04:08:08;6.80;93.10
33865;DHT22;20159;51.072;13.526;2022-11-06T04:10:58;6.80;93.00
33865;DHT22;20159;51.072;13.526;2022-11-06T04:13:45;8.00;93.30
33865;DHT22;20159;51.072;13.526;2022-11-06T04:16:41;6.70;92.90
33865;DHT22;20159;51.072;13.526;2022-11-06T04:19:16;6.70;92.90
33865;DHT22;20159;51.072;13.526;2022-11-06T04:21:54;6.60;92.90
33865;DHT22;20159;51.072;13.526;2022-11-06T04:27:22;6.50;92.80
33865;DHT22;20159;51.072;13.526;2022-11-06T04:30:08;6.50;92.70
33865;DHT22;20159;51.072;13.526;2022-11-06T04:41:12;6.20;92.20
33865;DHT22;20159;51.072;13.526;2022-11-06T04:43:54;6.10;92.30
33865;DHT22;20159;51.072;13.526;2022-11-06T04:46:31;6.00;92.20
33865;DHT22;20159;51.072;13.526;2022-11-06T04:48:58;6.00;92.10
33865;DHT22;20159;51.072;13.526;2022-11-06T04:51:25;5.90;92.40
33865;DHT22;20159;51.072;13.526;2022-11-06T04:53:52;5.90;92.30
33865;DHT22;20159;51.072;13.526;2022-11-06T04:56:30;5.80;92.00
33865;DHT22;20159;51.072;13.526;2022-11-06T04:58:57;5.70;92.30
33865;DHT22;20159;51.072;13.526;2022-11-06T05:01:22;5.60;92.20
33865;DHT22;20159;51.072;13.526;2022-11-06T05:03:48;5.60;92.30
33865;DHT22;20159;51.072;13.526;2022-11-06T05:06:14;5.50;92.40
33865;DHT22;20159;51.072;13.526;2022-11-06T05:08:39;5.40;92.40
33865;DHT22;20159;51.072;13.526;2022-11-06T05:11:05;5.40;92.40
33865;DHT22;20159;51.072;13.526;2022-11-06T05:13:31;5.40;92.30
33865;DHT22;20159;51.072;13.526;2022-11-06T05:15:58;5.30;92.20
33865;DHT22;20159;51.072;13.526;2022-11-06T05:18:25;5.20;92.10
33865;DHT22;20159;51.072;13.526;2022-11-06T05:20:51;5.20;92.20
33865;DHT22;20159;51.072;13.526;2022-11-06T05:23:37;5.10;92.20
33865;DHT22;20159;51.072;13.526;2022-11-06T05:26:06;7.90;93.10
33865;DHT22;20159;51.072;13.526;2022-11-06T05:28:32;5.00;92.40
33865;DHT22;20159;51.072;13.526;2022-11-06T05:30:58;4.90;92.40
33865;DHT22;20159;51.072;13.526;2022-11-06T05:33:23;4.90;92.50
33865;DHT22;20159;51.072;13.526;2022-11-06T05:35:49;4.80;92.50
33865;DHT22;20159;51.072;13.526;2022-11-06T05:38:15;4.80;92.60
33865;DHT22;20159;51.072;13.526;2022-11-06T05:40:40;4.70;92.50
33865;DHT22;20159;51.072;13.526;2022-11-06T05:43:06;4.70;92.50
33865;DHT22;20159;51.072;13.526;2022-11-06T05:45:32;4.60;92.40
33865;DHT22;20159;51.072;13.526;2022-11-06T05:47:57;4.60;92.40
33865;DHT22;20159;51.072;13.526;2022-11-06T05:50:23;4.60;92.40
33865;DHT22;20159;51.072;13.526;2022-11-06T05:52:49;4.50;92.60
33865;DHT22;20159;51.072;13.526;2022-11-06T05:55:15;4.50;92.40
33865;DHT22;20159;51.072;13.526;2022-11-06T05:57:41;4.40;92.40
33865;DHT22;20159;51.072;13.526;2022-11-06T06:00:08;4.40;92.40
33865;DHT22;20159;51.072;13.526;2022-11-06T06:02:35;4.30;92.30
33865;DHT22;20159;51.072;13.526;2022-11-06T06:05:01;4.20;92.40
33865;DHT22;20159;51.072;13.526;2022-11-06T06:07:26;4.20;92.40
33865;DHT22;20159;51.072;13.526;2022-11-06T06:09:52;4.20;92.70
33865;DHT22;20159;51.072;13.526;2022-11-06T06:12:17;4.10;92.60
33865;DHT22;20159;51.072;13.526;2022-11-06T06:14:43;4.10;92.60
33865;DHT22;20159;51.072;13.526;2022-11-06T06:17:08;4.10;93.00
33865;DHT22;20159;51.072;13.526;2022-11-06T06:19:34;4.10;93.00
33865;DHT22;20159;51.072;13.526;2022-11-06T06:22:00;4.10;93.20
33865;DHT22;20159;51.072;13.526;2022-11-06T06:24:25;4.10;93.70
33865;DHT22;20159;51.072;13.526;2022-11-06T06:26:51;4.10;94.00
33865;DHT22;20159;51.072;13.526;2022-11-06T06:29:16;4.10;94.40
33865;DHT22;20159;51.072;13.526;2022-11-06T06:31:42;4.20;94.80
33865;DHT22;20159;51.072;13.526;2022-11-06T06:34:07;4.30;95.20
33865;DHT22;20159;51.072;13.526;2022-11-06T06:36:33;4.40;95.70
33865;DHT22;20159;51.072;13.526;2022-11-06T06:38:58;4.50;96.10
33865;DHT22;20159;51.072;13.526;2022-11-06T06:41:24;4.70;96.30
33865;DHT22;20159;51.072;13.526;2022-11-06T06:43:50;4.80;96.40
33865;DHT22;20159;51.072;13.526;2022-11-06T06:46:16;5.00;96.70
33865;DHT22;20159;51.072;13.526;2022-11-06T06:48:41;5.20;96.90
33865;DHT22;20159;51.072;13.526;2022-11-06T06:51:07;5.40;96.80
33865;DHT22;20159;51.072;13.526;2022-11-06T06:53:33;5.70;96.80
33865;DHT22;20159;51.072;13.526;2022-11-06T06:56:00;5.90;96.50
33865;DHT22;20159;51.072;13.526;2022-11-06T06:58:29;6.10;96.20
33865;DHT22;20159;51.072;13.526;2022-11-06T07:00:58;6.30;96.00
33865;DHT22;20159;51.072;13.526;2022-11-06T07:03:24;6.50;96.00
33865;DHT22;20159;51.072;13.526;2022-11-06T07:05:49;6.70;96.20
33865;DHT22;20159;51.072;13.526;2022-11-06T07:08:15;6.90;96.00
33865;DHT22;20159;51.072;13.526;2022-11-06T07:10:40;7.10;95.80
33865;DHT22;20159;51.072;13.526;2022-11-06T07:13:06;7.40;95.90
33865;DHT22;20159;51.072;13.526;2022-11-06T07:15:32;7.60;95.70
33865;DHT22;20159;51.072;13.526;2022-11-06T07:18:02;7.90;95.90
33865;DHT22;20159;51.072;13.526;2022-11-06T07:20:28;8.20;96.10
33865;DHT22;20159;51.072;13.526;2022-11-06T07:22:54;8.60;96.80
33865;DHT22;20159;51.072;13.526;2022-11-06T07:25:20;9.00;96.90
33865;DHT22;20159;51.072;13.526;2022-11-06T07:27:45;9.40;96.80
33865;DHT22;20159;51.072;13.526;2022-11-06T07:30:11;9.70;96.60
33865;DHT22;20159;51.072;13.526;2022-11-06T07:32:36;10.10;96.40
33865;DHT22;20159;51.072;13.526;2022-11-06T07:35:02;10.50;96.00
33865;DHT22;20159;51.072;13.526;2022-11-06T07:37:28;11.00;96.30
33865;DHT22;20159;51.072;13.526;2022-11-06T07:39:53;11.50;95.50
33865;DHT22;20159;51.072;13.526;2022-11-06T07:42:19;12.00;94.60
33865;DHT22;20159;51.072;13.526;2022-11-06T07:44:44;12.40;93.90
33865;DHT22;20159;51.072;13.526;2022-11-06T07:47:10;12.80;93.50
33865;DHT22;20159;51.072;13.526;2022-11-06T07:49:35;13.20;92.40
33865;DHT22;20159;51.072;13.526;2022-11-06T07:52:01;13.50;92.90
33865;DHT22;20159;51.072;13.526;2022-11-06T07:54:27;13.80;92.50
33865;DHT22;20159;51.072;13.526;2022-11-06T07:56:52;14.10;91.70
33865;DHT22;20159;51.072;13.526;2022-11-06T07:59:18;14.50;92.20
33865;DHT22;20159;51.072;13.526;2022-11-06T08:01:43;14.90;91.20
33865;DHT22;20159;51.072;13.526;2022-11-06T08:04:10;15.20;90.50
33865;DHT22;20159;51.072;13.526;2022-11-06T08:06:36;15.60;89.10
33865;DHT22;20159;51.072;13.526;2022-11-06T08:09:05;16.00;88.60
33865;DHT22;20159;51.072;13.526;2022-11-06T08:11:31;16.30;87.00
33865;DHT22;20159;51.072;13.526;2022-11-06T08:13:59;16.70;85.20
33865;DHT22;20159;51.072;13.526;2022-11-06T08:16:25;17.00;83.60
33865;DHT22;20159;51.072;13.526;2022-11-06T08:18:50;17.30;84.30
33865;DHT22;20159;51.072;13.526;2022-11-06T08:21:16;17.60;82.20
33865;DHT22;20159;51.072;13.526;2022-11-06T08:23:41;17.80;82.30
33865;DHT22;20159;51.072;13.526;2022-11-06T08:26:07;18.00;80.40
33865;DHT22;20159;51.072;13.526;2022-11-06T08:28:33;18.30;81.80
33865;DHT22;20159;51.072;13.526;2022-11-06T08:31:06;18.60;79.70
33865;DHT22;20159;51.072;13.526;2022-11-06T08:33:32;16.50;80.00
33865;DHT22;20159;51.072;13.526;2022-11-06T08:36:05;19.20;81.30
33865;DHT22;20159;51.072;13.526;2022-11-06T08:38:31;19.50;78.20
33865;DHT22;20159;51.072;13.526;2022-11-06T08:40:56;19.90;77.90
33865;DHT22;20159;51.072;13.526;2022-11-06T08:43:22;20.20;79.70
33865;DHT22;20159;51.072;13.526;2022-11-06T08:45:51;20.50;81.10
33865;DHT22;20159;51.072;13.526;2022-11-06T08:48:16;20.90;79.70
33865;DHT22;20159;51.072;13.526;2022-11-06T08:50:42;21.20;76.40
33865;DHT22;20159;51.072;13.526;2022-11-06T08:53:07;21.50;72.80
33865;DHT22;20159;51.072;13.526;2022-11-06T08:55:37;21.70;73.90
33865;DHT22;20159;51.072;13.526;2022-11-06T08:58:04;21.90;70.70
33865;DHT22;20159;51.072;13.526;2022-11-06T09:00:30;22.10;71.40
33865;DHT22;20159;51.072;13.526;2022-11-06T09:03:01;22.30;72.60
33865;DHT22;20159;51.072;13.526;2022-11-06T09:05:27;22.50;71.10
33865;DHT22;20159;51.072;13.526;2022-11-06T09:07:55;22.60;70.40
33865;DHT22;20159;51.072;13.526;2022-11-06T09:10:21;22.80;66.60
33865;DHT22;20159;51.072;13.526;2022-11-06T09:12:46;22.90;69.70
33865;DHT22;20159;51.072;13.526;2022-11-06T09:15:12;23.10;67.20
33865;DHT22;20159;51.072;13.526;2022-11-06T09:17:45;23.20;67.70
33865;DHT22;20159;51.072;13.526;2022-11-06T09:20:11;23.30;63.30
33865;DHT22;20159;51.072;13.526;2022-11-06T09:22:37;23.30;64.60
33865;DHT22;20159;51.072;13.526;2022-11-06T09:25:03;23.30;65.50
33865;DHT22;20159;51.072;13.526;2022-11-06T09:27:29;23.40;65.20
33865;DHT22;20159;51.072;13.526;2022-11-06T09:29:54;23.40;62.30
33865;DHT22;20159;51.072;13.526;2022-11-06T09:32:20;23.40;63.40
33865;DHT22;20159;51.072;13.526;2022-11-06T09:34:46;23.40;61.30
33865;DHT22;20159;51.072;13.526;2022-11-06T09:37:12;23.30;59.70
33865;DHT22;20159;51.072;13.526;2022-11-06T09:39:37;23.30;61.60
33865;DHT22;20159;51.072;13.526;2022-11-06T09:42:44;23.20;60.70
33865;DHT22;20159;51.072;13.526;2022-11-06T09:45:18;23.20;61.30
33865;DHT22;20159;51.072;13.526;2022-11-06T09:47:55;23.10;59.40
33865;DHT22;20159;51.072;13.526;2022-11-06T09:50:28;23.10;57.60
33865;DHT22;20159;51.072;13.526;2022-11-06T09:53:05;21.60;57.90
33865;DHT22;20159;51.072;13.526;2022-11-06T09:55:39;23.00;56.30
33865;DHT22;20159;51.072;13.526;2022-11-06T09:58:17;22.90;58.30
33865;DHT22;20159;51.072;13.526;2022-11-06T10:00:44;22.80;56.50
33865;DHT22;20159;51.072;13.526;2022-11-06T10:05:43;22.60;58.90
33865;DHT22;20159;51.072;13.526;2022-11-06T10:08:23;22.40;58.00
33865;DHT22;20159;51.072;13.526;2022-11-06T10:16:52;22.10;57.00
33865;DHT22;20159;51.072;13.526;2022-11-06T10:19:38;21.90;58.10
33865;DHT22;20159;51.072;13.526;2022-11-06T10:27:31;21.40;56.90
33865;DHT22;20159;51.072;13.526;2022-11-06T10:30:04;21.20;55.90
33865;DHT22;20159;51.072;13.526;2022-11-06T10:35:00;20.90;57.10
33865;DHT22;20159;51.072;13.526;2022-11-06T10:37:33;20.70;56.20
33865;DHT22;20159;51.072;13.526;2022-11-06T10:40:04;20.60;57.10
33865;DHT22;20159;51.072;13.526;2022-11-06T10:42:39;20.50;57.00
33865;DHT22;20159;51.072;13.526;2022-11-06T10:45:15;20.50;56.70
33865;DHT22;20159;51.072;13.526;2022-11-06T10:47:50;20.40;56.80
33865;DHT22;20159;51.072;13.526;2022-11-06T10:50:17;20.30;55.70
33865;DHT22;20159;51.072;13.526;2022-11-06T10:52:52;20.20;57.10
33865;DHT22;20159;51.072;13.526;2022-11-06T10:55:46;20.00;56.20
33865;DHT22;20159;51.072;13.526;2022-11-06T10:58:16;19.80;55.70
33865;DHT22;20159;51.072;13.526;2022-11-06T11:00:42;19.60;56.70
33865;DHT22;20159;51.072;13.526;2022-11-06T11:03:21;19.40;57.50
33865;DHT22;20159;51.072;13.526;2022-11-06T11:05:48;19.30;57.90
33865;DHT22;20159;51.072;13.526;2022-11-06T11:08:37;18.30;57.20
33865;DHT22;20159;51.072;13.526;2022-11-06T11:16:41;19.10;57.70
33865;DHT22;20159;51.072;13.526;2022-11-06T11:19:25;19.10;59.80
33865;DHT22;20159;51.072;13.526;2022-11-06T11:22:00;19.10;57.20
33865;DHT22;20159;51.072;13.526;2022-11-06T11:24:26;19.20;57.10
33865;DHT22;20159;51.072;13.526;2022-11-06T11:26:58;19.10;58.70
33865;DHT22;20159;51.072;13.526;2022-11-06T11:29:29;19.20;58.20
33865;DHT22;20159;51.072;13.526;2022-11-06T11:31:59;19.20;58.30
33865;DHT22;20159;51.072;13.526;2022-11-06T11:34:28;19.30;59.00
33865;DHT22;20159;51.072;13.526;2022-11-06T12:10:35;17.80;62.00
33865;DHT22;20159;51.072;13.526;2022-11-06T12:13:15;17.80;60.90
33865;DHT22;20159;51.072;13.526;2022-11-06T12:16:03;20.60;61.70
33865;DHT22;20159;51.072;13.526;2022-11-06T12:18:36;17.90;58.40
33865;DHT22;20159;51.072;13.526;2022-11-06T12:21:11;18.80;60.40
33865;DHT22;20159;51.072;13.526;2022-11-06T12:23:48;20.70;59.60
33865;DHT22;20159;51.072;13.526;2022-11-06T12:28:46;20.30;60.50
33865;DHT22;20159;51.072;13.526;2022-11-06T12:32:20;18.30;58.60
33865;DHT22;20159;51.072;13.526;2022-11-06T12:34:57;18.40;60.20
33865;DHT22;20159;51.072;13.526;2022-11-06T12:38:14;18.50;58.20
33865;DHT22;20159;51.072;13.526;2022-11-06T12:44:07;18.80;59.80
33865;DHT22;20159;51.072;13.526;2022-11-06T12:46:47;18.90;60.40
33865;DHT22;20159;51.072;13.526;2022-11-06T12:49:40;19.00;58.00
33865;DHT22;20159;51.072;13.526;2022-11-06T12:54:54;19.30;60.10
33865;DHT22;20159;51.072;13.526;2022-11-06T13:00:51;19.40;57.50
33865;DHT22;20159;51.072;13.526;2022-11-06T13:06:38;19.50;56.70
33865;DHT22;20159;51.072;13.526;2022-11-06T13:11:57;19.50;56.20
33865;DHT22;20159;51.072;13.526;2022-11-06T13:17:30;19.60;56.50
33865;DHT22;20159;51.072;13.526;2022-11-06T13:20:16;19.50;57.10
33865;DHT22;20159;51.072;13.526;2022-11-06T13:23:12;19.50;56.10
33865;DHT22;20159;51.072;13.526;2022-11-06T13:30:43;19.30;55.80
33865;DHT22;20159;51.072;13.526;2022-11-06T13:33:16;19.20;56.60
33865;DHT22;20159;51.072;13.526;2022-11-06T13:35:45;19.10;55.40
33865;DHT22;20159;51.072;13.526;2022-11-06T13:38:27;19.10;55.80
33865;DHT22;20159;51.072;13.526;2022-11-06T13:40:59;18.90;56.30
33865;DHT22;20159;51.072;13.526;2022-11-06T13:43:36;20.00;56.60
33865;DHT22;20159;51.072;13.526;2022-11-06T13:51:55;18.90;57.20
33865;DHT22;20159;51.072;13.526;2022-11-06T13:54:53;18.20;57.20
33865;DHT22;20159;51.072;13.526;2022-11-06T14:00:20;17.80;56.30
33865;DHT22;20159;51.072;13.526;2022-11-06T14:03:16;17.70;57.60
33865;DHT22;20159;51.072;13.526;2022-11-06T14:08:48;17.30;58.10
33865;DHT22;20159;51.072;13.526;2022-11-06T14:11:17;17.10;57.80
33865;DHT22;20159;51.072;13.526;2022-11-06T14:14:06;19.50;59.50
33865;DHT22;20159;51.072;13.526;2022-11-06T14:16:38;16.80;57.70
33865;DHT22;20159;51.072;13.526;2022-11-06T14:27:01;17.20;60.40
33865;DHT22;20159;51.072;13.526;2022-11-06T14:32:34;17.80;61.50
33865;DHT22;20159;51.072;13.526;2022-11-06T14:38:12;15.40;61.70
33865;DHT22;20159;51.072;13.526;2022-11-06T14:40:41;16.00;62.10
33865;DHT22;20159;51.072;13.526;2022-11-06T14:43:29;15.70;62.00
33865;DHT22;20159;51.072;13.526;2022-11-06T14:46:05;14.70;62.70
33865;DHT22;20159;51.072;13.526;2022-11-06T14:48:34;14.50;62.60
33865;DHT22;20159;51.072;13.526;2022-11-06T14:51:04;14.30;62.60
33865;DHT22;20159;51.072;13.526;2022-11-06T14:53:35;14.10;62.60
33865;DHT22;20159;51.072;13.526;2022-11-06T14:56:07;13.90;62.80
33865;DHT22;20159;51.072;13.526;2022-11-06T14:58:39;13.70;63.70
33865;DHT22;20159;51.072;13.526;2022-11-06T15:03:49;13.40;64.30
33865;DHT22;20159;51.072;13.526;2022-11-06T15:16:46;12.50;66.60
33865;DHT22;20159;51.072;13.526;2022-11-06T15:19:15;14.10;68.80
33865;DHT22;20159;51.072;13.526;2022-11-06T15:21:48;12.10;67.50
33865;DHT22;20159;51.072;13.526;2022-11-06T15:24:19;12.00;68.30
33865;DHT22;20159;51.072;13.526;2022-11-06T15:26:50;11.80;69.10
33865;DHT22;20159;51.072;13.526;2022-11-06T15:29:23;11.70;69.20
33865;DHT22;20159;51.072;13.526;2022-11-06T15:31:54;11.50;70.10
33865;DHT22;20159;51.072;13.526;2022-11-06T15:34:26;11.30;69.90
33865;DHT22;20159;51.072;13.526;2022-11-06T15:37:00;11.10;70.60
33865;DHT22;20159;51.072;13.526;2022-11-06T15:39:42;11.00;71.10
33865;DHT22;20159;51.072;13.526;2022-11-06T15:42:16;10.80;72.10
33865;DHT22;20159;51.072;13.526;2022-11-06T15:44:44;10.60;71.70
33865;DHT22;20159;51.072;13.526;2022-11-06T15:47:25;10.50;72.20
33865;DHT22;20159;51.072;13.526;2022-11-06T15:50:18;10.30;73.30
33865;DHT22;20159;51.072;13.526;2022-11-06T15:52:45;10.20;73.70
33865;DHT22;20159;51.072;13.526;2022-11-06T15:55:34;10.00;73.20
33865;DHT22;20159;51.072;13.526;2022-11-06T15:58:23;9.90;73.70
33865;DHT22;20159;51.072;13.526;2022-11-06T16:00:48;9.80;74.90
33865;DHT22;20159;51.072;13.526;2022-11-06T16:03:22;9.70;74.50
33865;DHT22;20159;51.072;13.526;2022-11-06T16:05:49;9.60;75.30
33865;DHT22;20159;51.072;13.526;2022-11-06T16:08:16;9.50;75.30
33865;DHT22;20159;51.072;13.526;2022-11-06T16:10:44;9.40;75.80
33865;DHT22;20159;51.072;13.526;2022-11-06T16:13:14;9.40;76.20
33865;DHT22;20159;51.072;13.526;2022-11-06T16:15:48;9.30;76.50
33865;DHT22;20159;51.072;13.526;2022-11-06T16:20:55;9.20;76.90
33865;DHT22;20159;51.072;13.526;2022-11-06T16:23:32;9.20;77.20
33865;DHT22;20159;51.072;13.526;2022-11-06T16:26:00;9.20;77.80
33865;DHT22;20159;51.072;13.526;2022-11-06T16:28:28;9.10;77.60
33865;DHT22;20159;51.072;13.526;2022-11-06T16:31:05;9.10;77.70
33865;DHT22;20159;51.072;13.526;2022-11-06T16:33:32;9.10;78.10
33865;DHT22;20159;51.072;13.526;2022-11-06T16:36:09;9.10;78.10
33865;DHT22;20159;51.072;13.526;2022-11-06T16:38:43;9.00;78.80
33865;DHT22;20159;51.072;13.526;2022-11-06T16:41:11;9.00;78.60
33865;DHT22;20159;51.072;13.526;2022-11-06T16:43:37;8.90;78.50
33865;DHT22;20159;51.072;13.526;2022-11-06T16:46:05;8.90;78.50
33865;DHT22;20159;51.072;13.526;2022-11-06T16:48:50;8.80;78.60
33865;DHT22;20159;51.072;13.526;2022-11-06T16:51:31;8.70;79.40
33865;DHT22;20159;51.072;13.526;2022-11-06T16:54:00;8.70;79.40
33865;DHT22;20159;51.072;13.526;2022-11-06T16:56:29;8.60;79.10
33865;DHT22;20159;51.072;13.526;2022-11-06T17:01:23;8.40;80.00
33865;DHT22;20159;51.072;13.526;2022-11-06T17:03:57;8.30;79.90
33865;DHT22;20159;51.072;13.526;2022-11-06T17:06:32;8.30;80.50
33865;DHT22;20159;51.072;13.526;2022-11-06T17:09:42;8.20;80.30
33865;DHT22;20159;51.072;13.526;2022-11-06T17:11:53;8.10;80.60
33865;DHT22;20159;51.072;13.526;2022-11-06T17:14:20;8.00;80.80
33865;DHT22;20159;51.072;13.526;2022-11-06T17:17:04;7.90;80.90
33865;DHT22;20159;51.072;13.526;2022-11-06T17:19:29;7.90;82.30
33865;DHT22;20159;51.072;13.526;2022-11-06T17:21:55;7.80;81.40
33865;DHT22;20159;51.072;13.526;2022-11-06T17:24:22;7.80;81.70
33865;DHT22;20159;51.072;13.526;2022-11-06T17:26:49;7.70;81.90
33865;DHT22;20159;51.072;13.526;2022-11-06T17:29:16;7.60;82.00
33865;DHT22;20159;51.072;13.526;2022-11-06T17:31:42;7.50;82.00
33865;DHT22;20159;51.072;13.526;2022-11-06T17:34:08;7.50;81.90
33865;DHT22;20159;51.072;13.526;2022-11-06T17:36:35;7.40;81.90
33865;DHT22;20159;51.072;13.526;2022-11-06T17:39:02;7.30;81.90
33865;DHT22;20159;51.072;13.526;2022-11-06T17:41:27;7.20;82.10
33865;DHT22;20159;51.072;13.526;2022-11-06T17:44:00;7.10;82.50
33865;DHT22;20159;51.072;13.526;2022-11-06T17:46:29;7.10;83.70
33865;DHT22;20159;51.072;13.526;2022-11-06T17:48:55;6.20;85.50
33865;DHT22;20159;51.072;13.526;2022-11-06T17:51:21;7.00;88.00
33865;DHT22;20159;51.072;13.526;2022-11-06T17:54:06;7.00;88.60
33865;DHT22;20159;51.072;13.526;2022-11-06T17:56:32;7.10;87.80
33865;DHT22;20159;51.072;13.526;2022-11-06T17:58:57;7.10;86.90
33865;DHT22;20159;51.072;13.526;2022-11-06T18:01:23;7.10;86.30
33865;DHT22;20159;51.072;13.526;2022-11-06T18:03:49;7.10;85.70
33865;DHT22;20159;51.072;13.526;2022-11-06T18:06:15;7.10;85.60
33865;DHT22;20159;51.072;13.526;2022-11-06T18:08:41;7.00;85.40
33865;DHT22;20159;51.072;13.526;2022-11-06T18:11:08;7.00;85.40
33865;DHT22;20159;51.072;13.526;2022-11-06T18:13:34;6.90;85.40
33865;DHT22;20159;51.072;13.526;2022-11-06T18:15:59;6.90;85.50